createdAt,value
2023-01-15T00:01:48.456Z,3.88
2023-01-15T00:06:51.288Z,3.90
2023-01-15T00:11:55.137Z,3.94
2023-01-15T00:16:57.977Z,4.01
2023-01-15T00:22:00.832Z,4.04
2023-01-15T00:27:24.693Z,4.06
2023-01-15T00:32:29.869Z,4.12
2023-01-15T00:37:32.962Z,4.13
2023-01-15T00:42:35.840Z,4.12
2023-01-15T00:47:44.384Z,4.14
2023-01-15T00:52:47.790Z,4.10
2023-01-15T00:57:50.591Z,4.08
2023-01-15T01:02:53.344Z,4.12
2023-01-15T01:07:56.119Z,4.11
2023-01-15T01:12:58.947Z,4.07
2023-01-15T01:18:02.106Z,4.07
2023-01-15T01:23:04.933Z,4.05
2023-01-15T01:28:07.735Z,4.02
2023-01-15T01:33:10.551Z,4.03
2023-01-15T01:38:13.301Z,3.99
2023-01-15T01:43:22.071Z,3.94
2023-01-15T01:48:30.408Z,3.95
2023-01-15T01:53:33.267Z,3.89
2023-01-15T01:58:36.024Z,3.82
2023-01-15T02:03:38.886Z,3.79
2023-01-15T02:08:42.109Z,3.70
2023-01-15T02:14:06.331Z,3.61
2023-01-15T02:19:36.642Z,3.54
2023-01-15T02:25:21.193Z,3.45
2023-01-15T02:30:44.284Z,3.37
2023-01-15T02:35:50.669Z,3.38
2023-01-15T02:40:55.406Z,3.36
2023-01-15T02:45:58.691Z,3.33
2023-01-15T02:51:08.291Z,3.35
2023-01-15T02:56:20.675Z,3.37
2023-01-15T03:01:51.195Z,3.36
2023-01-15T03:07:23.333Z,3.33
2023-01-15T03:12:33.890Z,3.37
2023-01-15T03:17:43.690Z,3.37
2023-01-15T03:22:46.993Z,3.37
2023-01-15T03:27:49.895Z,3.42
2023-01-15T03:32:54.143Z,3.43
2023-01-15T03:37:57.337Z,3.43
2023-01-15T03:43:20.670Z,3.47
2023-01-15T03:48:46.876Z,3.49
2023-01-15T03:53:56.556Z,3.50
2023-01-15T03:59:21.874Z,3.53
2023-01-15T04:04:26.206Z,3.50
2023-01-15T04:09:29.044Z,3.48
2023-01-15T04:14:32.072Z,3.51
2023-01-15T04:19:35.014Z,3.53
2023-01-15T04:24:38.368Z,3.54
2023-01-15T04:29:41.214Z,3.60
2023-01-15T04:34:44.060Z,3.63
2023-01-15T04:39:47.848Z,3.65
2023-01-15T04:44:50.647Z,3.68
2023-01-15T04:49:53.884Z,3.65
2023-01-15T04:54:56.795Z,3.63
2023-01-15T04:59:59.853Z,3.66
2023-01-15T05:05:02.660Z,3.65
2023-01-15T05:10:07.299Z,3.63
2023-01-15T05:15:10.556Z,3.67
2023-01-15T05:20:15.034Z,3.66
2023-01-15T05:25:17.871Z,3.66
2023-01-15T05:30:20.784Z,3.70
2023-01-15T05:35:23.620Z,3.71
2023-01-15T05:40:26.442Z,3.74
2023-01-15T05:45:29.355Z,3.83
2023-01-15T05:50:32.207Z,3.90
2023-01-15T05:55:35.102Z,3.94
2023-01-15T06:00:38.000Z,4.01
2023-01-15T06:05:40.870Z,4.08
2023-01-15T06:10:45.743Z,4.11
2023-01-15T06:15:48.556Z,4.18
2023-01-15T06:20:51.441Z,4.19
2023-01-15T06:25:54.536Z,4.22
2023-01-15T06:30:57.309Z,4.28
2023-01-15T06:36:11.076Z,4.34
2023-01-15T06:41:45.791Z,4.34
2023-01-15T06:47:09.455Z,4.36
2023-01-15T06:52:12.261Z,4.42
2023-01-15T06:57:15.091Z,4.44
2023-01-15T07:02:18.670Z,4.46
2023-01-15T07:07:21.861Z,4.44
2023-01-15T07:12:24.695Z,4.50
2023-01-15T07:17:28.685Z,4.51
2023-01-15T07:22:31.934Z,4.45
2023-01-15T07:27:34.774Z,4.45
2023-01-15T07:32:38.010Z,4.43
2023-01-15T07:37:40.908Z,4.39
2023-01-15T07:43:02.420Z,4.33
2023-01-15T07:48:28.915Z,4.32
2023-01-15T07:53:31.716Z,4.36
2023-01-15T07:58:34.559Z,4.38
2023-01-15T08:03:37.820Z,4.38
2023-01-15T08:08:40.659Z,4.43
2023-01-15T08:14:02.199Z,4.50
2023-01-15T08:19:05.110Z,4.53
2023-01-15T08:24:07.977Z,4.57
2023-01-15T08:29:10.861Z,4.67
2023-01-15T08:34:13.706Z,4.79
2023-01-15T08:39:16.487Z,4.86
2023-01-15T08:44:21.639Z,4.90
2023-01-15T08:49:24.528Z,4.94
2023-01-15T08:54:27.477Z,5.01
2023-01-15T08:59:30.666Z,5.11
2023-01-15T09:04:33.602Z,5.13
2023-01-15T09:09:36.551Z,5.13
2023-01-15T09:14:58.463Z,5.17
2023-01-15T09:20:06.789Z,5.15
2023-01-15T09:25:10.155Z,5.11
2023-01-15T09:30:21.561Z,5.10
2023-01-15T09:35:24.434Z,5.10
2023-01-15T09:40:57.515Z,5.06
2023-01-15T09:46:16.708Z,4.98
2023-01-15T09:51:35.772Z,4.96
2023-01-15T09:56:38.720Z,4.93
2023-01-15T10:01:41.533Z,4.86
2023-01-15T10:07:04.350Z,4.86
2023-01-15T10:12:35.528Z,4.88
2023-01-15T10:17:44.265Z,4.84
2023-01-15T10:23:31.242Z,4.84
2023-01-15T10:28:58.479Z,4.82
2023-01-15T10:34:37.946Z,4.81
2023-01-15T10:40:14.747Z,4.82
2023-01-15T10:45:26.905Z,4.84
2023-01-15T10:50:29.743Z,4.81
2023-01-15T10:55:41.933Z,4.85
2023-01-15T11:00:52.721Z,4.85
2023-01-15T11:05:57.578Z,4.78
2023-01-15T11:11:53.614Z,4.78
2023-01-15T11:17:08.675Z,4.75
2023-01-15T11:22:18.456Z,4.73
2023-01-15T11:27:25.006Z,4.72
2023-01-15T11:32:32.875Z,4.70
2023-01-15T11:37:35.680Z,4.66
2023-01-15T11:42:57.533Z,4.64
2023-01-15T11:48:19.079Z,4.66
2023-01-15T11:53:27.766Z,4.62
2023-01-15T11:58:34.284Z,4.62
2023-01-15T12:03:37.214Z,4.62
2023-01-15T12:08:56.917Z,4.66
2023-01-15T12:14:09.973Z,4.65
2023-01-15T12:19:37.085Z,4.67
2023-01-15T12:25:18.980Z,4.70
2023-01-15T12:30:40.072Z,4.67
2023-01-15T12:35:47.141Z,4.65
2023-01-15T12:40:57.493Z,4.69
2023-01-15T12:46:00.357Z,4.71
2023-01-15T12:51:04.654Z,4.70
2023-01-15T12:56:37.524Z,4.72
2023-01-15T13:02:17.478Z,4.76
2023-01-15T13:08:03.987Z,4.77
2023-01-15T13:13:17.058Z,4.82
2023-01-15T13:19:04.298Z,4.84
2023-01-15T13:24:19.956Z,4.84
2023-01-15T13:30:12.997Z,4.92
2023-01-15T13:35:34.356Z,4.98
2023-01-15T13:40:44.392Z,4.98
2023-01-15T13:45:50.133Z,5.02
2023-01-15T13:50:55.041Z,5.06
2023-01-15T13:56:06.417Z,5.05
2023-01-15T14:01:20.572Z,5.08
2023-01-15T14:06:23.602Z,5.09
2023-01-15T14:11:55.247Z,5.10
2023-01-15T14:17:12.478Z,5.15
2023-01-15T14:22:40.138Z,5.17
2023-01-15T14:28:02.243Z,5.19
2023-01-15T14:33:11.141Z,5.15
2023-01-15T14:38:19.261Z,5.17
2023-01-15T14:43:22.592Z,5.20
2023-01-15T14:48:28.128Z,5.20
2023-01-15T14:53:34.233Z,5.17
2023-01-15T14:58:49.163Z,5.20
2023-01-15T15:04:07.115Z,5.24
2023-01-15T15:09:13.699Z,5.25
2023-01-15T15:14:16.577Z,5.30
2023-01-15T15:19:40.711Z,5.34
2023-01-15T15:24:49.807Z,5.29
2023-01-15T15:29:52.656Z,5.29
2023-01-15T15:34:56.105Z,5.31
2023-01-15T15:40:05.014Z,5.32
2023-01-15T15:45:46.659Z,5.30
2023-01-15T15:50:49.754Z,5.30
2023-01-15T15:55:53.288Z,5.34
2023-01-15T16:00:57.575Z,5.37
2023-01-15T16:06:03.390Z,5.36
2023-01-15T16:11:09.108Z,5.39
2023-01-15T16:16:12.008Z,5.48
2023-01-15T16:21:22.252Z,5.52
2023-01-15T16:26:35.027Z,5.58
2023-01-15T16:31:37.829Z,5.61
2023-01-15T16:36:42.238Z,5.59
2023-01-15T16:41:45.424Z,5.57
2023-01-15T16:46:55.759Z,5.52
2023-01-15T16:52:00.844Z,5.46
2023-01-15T16:57:23.782Z,5.39
2023-01-15T17:02:29.923Z,5.31
2023-01-15T17:07:37.409Z,5.28
2023-01-15T17:12:40.280Z,5.25
2023-01-15T17:17:49.474Z,5.25
2023-01-15T17:22:52.451Z,5.21
2023-01-15T17:27:56.041Z,5.20
2023-01-15T17:33:03.340Z,5.19
2023-01-15T17:38:07.523Z,5.21
2023-01-15T17:43:15.067Z,5.20
2023-01-15T17:48:18.516Z,5.15
2023-01-15T17:53:22.574Z,5.14
2023-01-15T17:58:44.009Z,5.12
2023-01-15T18:04:08.945Z,5.12
2023-01-15T18:09:11.695Z,5.09
2023-01-15T18:14:14.532Z,5.05
2023-01-15T18:19:17.410Z,5.09
2023-01-15T18:24:22.225Z,5.13
2023-01-15T18:29:25.500Z,5.17
2023-01-15T18:34:28.418Z,5.16
2023-01-15T18:39:31.526Z,5.13
2023-01-15T18:44:53.118Z,5.08
2023-01-15T18:49:56.279Z,5.08
2023-01-15T18:55:00.684Z,5.09
2023-01-15T19:00:04.128Z,5.13
2023-01-15T19:05:07.344Z,5.13
2023-01-15T19:10:11.878Z,5.15
2023-01-15T19:15:36.672Z,5.15
2023-01-15T19:20:39.555Z,5.09
2023-01-15T19:25:45.408Z,5.08
2023-01-15T19:31:07.800Z,5.06
2023-01-15T19:36:11.187Z,5.03
2023-01-15T19:41:32.718Z,5.01
2023-01-15T19:47:07.961Z,4.90
2023-01-15T19:52:29.213Z,4.82
2023-01-15T19:57:32.056Z,4.71
2023-01-15T20:02:35.013Z,4.64
2023-01-15T20:07:38.318Z,4.60
2023-01-15T20:12:59.825Z,4.61
2023-01-15T20:18:02.624Z,4.57
2023-01-15T20:23:05.845Z,4.50
2023-01-15T20:28:08.657Z,4.57
2023-01-15T20:33:12.098Z,4.64
2023-01-15T20:38:19.057Z,4.65
2023-01-15T20:43:40.597Z,4.61
2023-01-15T20:49:01.805Z,4.63
2023-01-15T20:54:04.766Z,4.67
2023-01-15T20:59:07.550Z,4.71
2023-01-15T21:04:12.612Z,4.74
2023-01-15T21:09:16.664Z,4.68
2023-01-15T21:14:19.502Z,4.70
2023-01-15T21:19:23.313Z,4.66
2023-01-15T21:24:26.405Z,4.65
2023-01-15T21:29:29.449Z,4.64
2023-01-15T21:34:32.288Z,4.58
2023-01-15T21:39:35.128Z,4.59
2023-01-15T21:44:43.464Z,4.54
2023-01-15T21:49:46.844Z,4.53
2023-01-15T21:54:50.186Z,4.47
2023-01-15T21:59:53.032Z,4.47
2023-01-15T22:04:55.824Z,4.46
2023-01-15T22:09:58.617Z,4.46
2023-01-15T22:15:01.393Z,4.43
2023-01-15T22:20:06.274Z,4.43
2023-01-15T22:25:11.912Z,4.43
2023-01-15T22:30:16.756Z,4.41
2023-01-15T22:35:19.627Z,4.37
2023-01-15T22:40:22.474Z,4.33
2023-01-15T22:45:25.347Z,4.32
2023-01-15T22:50:28.307Z,4.32
2023-01-15T22:55:31.148Z,4.24
2023-01-15T23:00:34.099Z,4.19
2023-01-15T23:05:39.829Z,4.18
2023-01-15T23:10:45.894Z,4.18
2023-01-15T23:15:58.718Z,4.19
2023-01-15T23:21:04.735Z,4.14
2023-01-15T23:26:12.977Z,4.18
2023-01-15T23:31:15.809Z,4.13
2023-01-15T23:36:18.758Z,4.07
2023-01-15T23:41:44.875Z,4.05
2023-01-15T23:46:48.232Z,4.03
2023-01-15T23:51:51.187Z,4.07
2023-01-15T23:56:55.141Z,4.04
